sensor_id;sensor_type;location;lat;lon;timestamp;P1;durP1;ratioP1;P2;durP2;ratioP2
2320;SDS011;15376;48.540;9.268;2022-12-08T00:01:39;11.20;;;8.50;;
2320;SDS011;15376;48.540;9.268;2022-12-08T00:04:04;11.20;;;9.37;;
2320;SDS011;15376;48.540;9.268;2022-12-08T00:09:20;11.37;;;8.90;;
2320;SDS011;15376;48.540;9.268;2022-12-08T00:11:58;10.80;;;9.47;;
2320;SDS011;15376;48.540;9.268;2022-12-08T00:14:29;11.93;;;9.43;;
2320;SDS011;15376;48.540;9.268;2022-12-08T00:16:55;10.83;;;9.30;;
2320;SDS011;15376;48.540;9.268;2022-12-08T00:19:22;11.97;;;10.17;;
2320;SDS011;15376;48.540;9.268;2022-12-08T00:21:47;10.70;;;9.60;;
2320;SDS011;15376;48.540;9.268;2022-12-08T00:24:13;13.77;;;9.87;;
2320;SDS011;15376;48.540;9.268;2022-12-08T00:26:38;9.70;;;8.20;;
2320;SDS011;15376;48.540;9.268;2022-12-08T00:29:04;10.07;;;8.60;;
2320;SDS011;15376;48.540;9.268;2022-12-08T00:31:30;10.60;;;8.27;;
2320;SDS011;15376;48.540;9.268;2022-12-08T00:33:56;14.23;;;11.63;;
2320;SDS011;15376;48.540;9.268;2022-12-08T00:36:22;11.40;;;9.43;;
2320;SDS011;15376;48.540;9.268;2022-12-08T00:38:47;11.80;;;9.77;;
2320;SDS011;15376;48.540;9.268;2022-12-08T00:41:14;11.93;;;9.03;;
2320;SDS011;15376;48.540;9.268;2022-12-08T00:43:41;10.97;;;9.07;;
2320;SDS011;15376;48.540;9.268;2022-12-08T00:46:07;11.50;;;10.27;;
2320;SDS011;15376;48.540;9.268;2022-12-08T00:48:32;10.97;;;8.83;;
2320;SDS011;15376;48.540;9.268;2022-12-08T00:50:58;12.13;;;10.97;;
2320;SDS011;15376;48.540;9.268;2022-12-08T00:53:23;11.50;;;9.30;;
2320;SDS011;15376;48.540;9.268;2022-12-08T00:55:49;12.10;;;10.00;;
2320;SDS011;15376;48.540;9.268;2022-12-08T00:58:14;13.20;;;9.37;;
2320;SDS011;15376;48.540;9.268;2022-12-08T01:00:40;10.90;;;8.90;;
2320;SDS011;15376;48.540;9.268;2022-12-08T01:03:09;11.90;;;9.87;;
2320;SDS011;15376;48.540;9.268;2022-12-08T01:05:35;12.07;;;8.40;;
2320;SDS011;15376;48.540;9.268;2022-12-08T01:08:02;10.90;;;9.67;;
2320;SDS011;15376;48.540;9.268;2022-12-08T01:10:29;12.67;;;10.00;;
2320;SDS011;15376;48.540;9.268;2022-12-08T01:12:54;13.80;;;10.97;;
2320;SDS011;15376;48.540;9.268;2022-12-08T01:15:20;11.70;;;9.70;;
2320;SDS011;15376;48.540;9.268;2022-12-08T01:17:45;10.43;;;9.13;;
2320;SDS011;15376;48.540;9.268;2022-12-08T01:20:11;10.83;;;9.03;;
2320;SDS011;15376;48.540;9.268;2022-12-08T01:22:36;11.73;;;9.87;;
2320;SDS011;15376;48.540;9.268;2022-12-08T01:25:01;13.47;;;9.60;;
2320;SDS011;15376;48.540;9.268;2022-12-08T01:27:27;9.93;;;8.80;;
2320;SDS011;15376;48.540;9.268;2022-12-08T01:29:52;13.60;;;10.67;;
2320;SDS011;15376;48.540;9.268;2022-12-08T01:32:18;14.27;;;10.80;;
2320;SDS011;15376;48.540;9.268;2022-12-08T01:34:43;16.40;;;10.30;;
2320;SDS011;15376;48.540;9.268;2022-12-08T01:37:08;15.60;;;10.67;;
2320;SDS011;15376;48.540;9.268;2022-12-08T01:39:36;11.13;;;9.60;;
2320;SDS011;15376;48.540;9.268;2022-12-08T01:42:02;11.90;;;9.70;;
2320;SDS011;15376;48.540;9.268;2022-12-08T01:46:52;14.17;;;10.23;;
2320;SDS011;15376;48.540;9.268;2022-12-08T01:49:22;12.90;;;10.13;;
2320;SDS011;15376;48.540;9.268;2022-12-08T01:51:59;11.20;;;8.60;;
2320;SDS011;15376;48.540;9.268;2022-12-08T01:54:33;11.47;;;9.33;;
2320;SDS011;15376;48.540;9.268;2022-12-08T01:57:04;12.23;;;9.20;;
2320;SDS011;15376;48.540;9.268;2022-12-08T01:59:35;10.77;;;9.13;;
2320;SDS011;15376;48.540;9.268;2022-12-08T02:02:03;12.87;;;10.33;;
2320;SDS011;15376;48.540;9.268;2022-12-08T02:04:29;11.67;;;9.77;;
2320;SDS011;15376;48.540;9.268;2022-12-08T02:06:54;11.90;;;9.83;;
2320;SDS011;15376;48.540;9.268;2022-12-08T02:09:20;12.27;;;10.00;;
2320;SDS011;15376;48.540;9.268;2022-12-08T02:11:46;10.60;;;8.50;;
2320;SDS011;15376;48.540;9.268;2022-12-08T02:14:12;10.57;;;8.83;;
2320;SDS011;15376;48.540;9.268;2022-12-08T02:16:49;14.13;;;9.97;;
2320;SDS011;15376;48.540;9.268;2022-12-08T02:22:17;10.60;;;9.50;;
2320;SDS011;15376;48.540;9.268;2022-12-08T02:27:21;12.10;;;8.30;;
2320;SDS011;15376;48.540;9.268;2022-12-08T02:30:07;13.07;;;9.30;;
2320;SDS011;15376;48.540;9.268;2022-12-08T02:35:10;9.40;;;8.50;;
2320;SDS011;15376;48.540;9.268;2022-12-08T02:43:38;9.73;;;7.73;;
2320;SDS011;15376;48.540;9.268;2022-12-08T02:46:08;11.23;;;8.60;;
2320;SDS011;15376;48.540;9.268;2022-12-08T02:48:37;11.13;;;9.00;;
2320;SDS011;15376;48.540;9.268;2022-12-08T02:51:03;10.30;;;8.67;;
2320;SDS011;15376;48.540;9.268;2022-12-08T02:53:31;11.27;;;8.77;;
2320;SDS011;15376;48.540;9.268;2022-12-08T02:56:13;10.35;;;8.50;;
2320;SDS011;15376;48.540;9.268;2022-12-08T03:02:01;10.07;;;7.87;;
2320;SDS011;15376;48.540;9.268;2022-12-08T03:15:14;11.75;;;8.75;;
2320;SDS011;15376;48.540;9.268;2022-12-08T03:17:48;13.77;;;10.00;;
2320;SDS011;15376;48.540;9.268;2022-12-08T03:20:18;10.80;;;9.70;;
2320;SDS011;15376;48.540;9.268;2022-12-08T03:22:46;15.23;;;9.17;;
2320;SDS011;15376;48.540;9.268;2022-12-08T03:25:14;14.23;;;9.00;;
2320;SDS011;15376;48.540;9.268;2022-12-08T03:27:44;10.63;;;9.57;;
2320;SDS011;15376;48.540;9.268;2022-12-08T03:30:10;9.57;;;8.17;;
2320;SDS011;15376;48.540;9.268;2022-12-08T03:35:21;11.07;;;9.20;;
2320;SDS011;15376;48.540;9.268;2022-12-08T03:37:49;11.43;;;9.38;;
2320;SDS011;15376;48.540;9.268;2022-12-08T03:40:16;12.60;;;8.53;;
2320;SDS011;15376;48.540;9.268;2022-12-08T03:42:43;10.27;;;8.80;;
2320;SDS011;15376;48.540;9.268;2022-12-08T03:45:09;12.50;;;9.10;;
2320;SDS011;15376;48.540;9.268;2022-12-08T03:47:34;10.30;;;7.80;;
2320;SDS011;15376;48.540;9.268;2022-12-08T03:50:00;12.27;;;9.00;;
2320;SDS011;15376;48.540;9.268;2022-12-08T03:52:25;11.43;;;9.47;;
2320;SDS011;15376;48.540;9.268;2022-12-08T03:54:50;12.83;;;8.90;;
2320;SDS011;15376;48.540;9.268;2022-12-08T03:57:16;11.20;;;9.13;;
2320;SDS011;15376;48.540;9.268;2022-12-08T03:59:41;11.93;;;9.43;;
2320;SDS011;15376;48.540;9.268;2022-12-08T04:02:06;10.30;;;8.27;;
2320;SDS011;15376;48.540;9.268;2022-12-08T04:04:32;12.80;;;9.30;;
2320;SDS011;15376;48.540;9.268;2022-12-08T04:06:57;9.43;;;8.43;;
2320;SDS011;15376;48.540;9.268;2022-12-08T04:09:22;13.37;;;8.97;;
2320;SDS011;15376;48.540;9.268;2022-12-08T04:11:48;12.80;;;9.60;;
2320;SDS011;15376;48.540;9.268;2022-12-08T04:14:13;15.27;;;10.60;;
2320;SDS011;15376;48.540;9.268;2022-12-08T04:16:38;10.90;;;9.13;;
2320;SDS011;15376;48.540;9.268;2022-12-08T04:19:04;11.20;;;9.50;;
2320;SDS011;15376;48.540;9.268;2022-12-08T04:21:29;13.90;;;8.87;;
2320;SDS011;15376;48.540;9.268;2022-12-08T04:23:55;10.10;;;8.97;;
2320;SDS011;15376;48.540;9.268;2022-12-08T04:26:20;12.97;;;9.27;;
2320;SDS011;15376;48.540;9.268;2022-12-08T04:28:46;14.70;;;10.00;;
2320;SDS011;15376;48.540;9.268;2022-12-08T04:31:11;15.97;;;9.10;;
2320;SDS011;15376;48.540;9.268;2022-12-08T04:33:37;12.07;;;9.37;;
2320;SDS011;15376;48.540;9.268;2022-12-08T04:36:02;11.27;;;9.80;;
2320;SDS011;15376;48.540;9.268;2022-12-08T04:38:29;13.35;;;10.95;;
2320;SDS011;15376;48.540;9.268;2022-12-08T04:40:54;20.53;;;11.87;;
2320;SDS011;15376;48.540;9.268;2022-12-08T04:43:20;12.43;;;9.87;;
2320;SDS011;15376;48.540;9.268;2022-12-08T04:45:45;16.77;;;10.90;;
2320;SDS011;15376;48.540;9.268;2022-12-08T04:48:11;16.40;;;10.07;;
2320;SDS011;15376;48.540;9.268;2022-12-08T04:50:38;12.55;;;9.95;;
2320;SDS011;15376;48.540;9.268;2022-12-08T04:53:05;17.23;;;10.60;;
2320;SDS011;15376;48.540;9.268;2022-12-08T04:55:30;13.13;;;9.40;;
2320;SDS011;15376;48.540;9.268;2022-12-08T04:57:56;12.27;;;8.77;;
2320;SDS011;15376;48.540;9.268;2022-12-08T05:00:21;12.07;;;9.13;;
2320;SDS011;15376;48.540;9.268;2022-12-08T05:02:46;13.20;;;9.73;;
2320;SDS011;15376;48.540;9.268;2022-12-08T05:05:12;17.00;;;10.73;;
2320;SDS011;15376;48.540;9.268;2022-12-08T05:07:37;13.20;;;10.20;;
2320;SDS011;15376;48.540;9.268;2022-12-08T05:10:03;16.30;;;11.73;;
2320;SDS011;15376;48.540;9.268;2022-12-08T05:12:28;18.17;;;11.70;;
2320;SDS011;15376;48.540;9.268;2022-12-08T05:14:54;16.23;;;10.60;;
2320;SDS011;15376;48.540;9.268;2022-12-08T05:17:19;11.73;;;9.80;;
2320;SDS011;15376;48.540;9.268;2022-12-08T05:19:45;16.17;;;12.07;;
2320;SDS011;15376;48.540;9.268;2022-12-08T05:22:10;15.97;;;10.10;;
2320;SDS011;15376;48.540;9.268;2022-12-08T05:24:35;16.90;;;11.17;;
2320;SDS011;15376;48.540;9.268;2022-12-08T05:27:01;13.37;;;9.53;;
2320;SDS011;15376;48.540;9.268;2022-12-08T05:29:26;14.93;;;9.50;;
2320;SDS011;15376;48.540;9.268;2022-12-08T05:31:52;13.40;;;9.87;;
2320;SDS011;15376;48.540;9.268;2022-12-08T05:34:17;15.87;;;10.70;;
2320;SDS011;15376;48.540;9.268;2022-12-08T05:36:43;14.20;;;10.50;;
2320;SDS011;15376;48.540;9.268;2022-12-08T05:39:11;15.00;;;10.40;;
2320;SDS011;15376;48.540;9.268;2022-12-08T05:41:37;15.20;;;10.80;;
2320;SDS011;15376;48.540;9.268;2022-12-08T05:44:03;11.20;;;9.70;;
2320;SDS011;15376;48.540;9.268;2022-12-08T05:46:28;12.47;;;9.63;;
2320;SDS011;15376;48.540;9.268;2022-12-08T05:48:54;11.80;;;8.87;;
2320;SDS011;15376;48.540;9.268;2022-12-08T05:51:20;12.37;;;9.43;;
2320;SDS011;15376;48.540;9.268;2022-12-08T05:53:47;13.00;;;9.95;;
2320;SDS011;15376;48.540;9.268;2022-12-08T05:56:14;19.95;;;12.07;;
2320;SDS011;15376;48.540;9.268;2022-12-08T05:58:39;16.30;;;10.77;;
2320;SDS011;15376;48.540;9.268;2022-12-08T06:01:05;15.03;;;11.77;;
2320;SDS011;15376;48.540;9.268;2022-12-08T06:03:31;12.07;;;10.30;;
2320;SDS011;15376;48.540;9.268;2022-12-08T06:05:56;12.50;;;10.63;;
2320;SDS011;15376;48.540;9.268;2022-12-08T06:08:21;15.23;;;10.87;;
2320;SDS011;15376;48.540;9.268;2022-12-08T06:10:47;18.07;;;12.10;;
2320;SDS011;15376;48.540;9.268;2022-12-08T06:13:12;13.67;;;11.37;;
2320;SDS011;15376;48.540;9.268;2022-12-08T06:15:38;16.80;;;12.40;;
2320;SDS011;15376;48.540;9.268;2022-12-08T06:18:04;14.88;;;10.13;;
2320;SDS011;15376;48.540;9.268;2022-12-08T06:20:30;12.57;;;10.73;;
2320;SDS011;15376;48.540;9.268;2022-12-08T06:22:56;15.47;;;10.50;;
2320;SDS011;15376;48.540;9.268;2022-12-08T06:25:22;15.77;;;10.00;;
2320;SDS011;15376;48.540;9.268;2022-12-08T06:27:48;12.60;;;9.73;;
2320;SDS011;15376;48.540;9.268;2022-12-08T06:30:14;12.23;;;9.43;;
2320;SDS011;15376;48.540;9.268;2022-12-08T06:32:40;12.17;;;8.53;;
2320;SDS011;15376;48.540;9.268;2022-12-08T06:35:05;10.67;;;9.50;;
2320;SDS011;15376;48.540;9.268;2022-12-08T06:37:31;12.60;;;9.70;;
2320;SDS011;15376;48.540;9.268;2022-12-08T06:39:56;14.50;;;10.27;;
2320;SDS011;15376;48.540;9.268;2022-12-08T06:42:22;13.13;;;9.43;;
2320;SDS011;15376;48.540;9.268;2022-12-08T06:45:06;13.38;;;9.68;;
2320;SDS011;15376;48.540;9.268;2022-12-08T06:47:32;18.90;;;10.07;;
2320;SDS011;15376;48.540;9.268;2022-12-08T06:49:57;15.27;;;11.30;;
2320;SDS011;15376;48.540;9.268;2022-12-08T06:52:23;15.23;;;9.97;;
2320;SDS011;15376;48.540;9.268;2022-12-08T06:54:48;15.63;;;10.00;;
2320;SDS011;15376;48.540;9.268;2022-12-08T06:57:13;17.20;;;11.37;;
2320;SDS011;15376;48.540;9.268;2022-12-08T06:59:39;17.27;;;11.50;;
2320;SDS011;15376;48.540;9.268;2022-12-08T07:02:04;13.90;;;11.10;;
2320;SDS011;15376;48.540;9.268;2022-12-08T07:04:30;19.83;;;11.20;;
2320;SDS011;15376;48.540;9.268;2022-12-08T07:06:55;19.67;;;12.23;;
2320;SDS011;15376;48.540;9.268;2022-12-08T07:09:20;14.57;;;11.30;;
2320;SDS011;15376;48.540;9.268;2022-12-08T07:11:46;14.90;;;11.70;;
2320;SDS011;15376;48.540;9.268;2022-12-08T07:14:11;23.70;;;13.53;;
2320;SDS011;15376;48.540;9.268;2022-12-08T07:16:37;17.03;;;13.30;;
2320;SDS011;15376;48.540;9.268;2022-12-08T07:19:03;20.27;;;13.90;;
2320;SDS011;15376;48.540;9.268;2022-12-08T07:21:29;24.60;;;15.88;;
2320;SDS011;15376;48.540;9.268;2022-12-08T07:23:54;19.30;;;14.10;;
2320;SDS011;15376;48.540;9.268;2022-12-08T07:26:20;15.50;;;13.10;;
2320;SDS011;15376;48.540;9.268;2022-12-08T07:28:45;17.80;;;14.80;;
2320;SDS011;15376;48.540;9.268;2022-12-08T07:31:20;18.43;;;13.47;;
2320;SDS011;15376;48.540;9.268;2022-12-08T07:33:48;19.48;;;14.27;;
2320;SDS011;15376;48.540;9.268;2022-12-08T07:36:14;18.50;;;12.83;;
2320;SDS011;15376;48.540;9.268;2022-12-08T07:38:40;21.80;;;12.60;;
2320;SDS011;15376;48.540;9.268;2022-12-08T07:41:10;18.37;;;12.33;;
2320;SDS011;15376;48.540;9.268;2022-12-08T07:43:37;19.47;;;12.23;;
2320;SDS011;15376;48.540;9.268;2022-12-08T07:46:02;15.67;;;11.60;;
2320;SDS011;15376;48.540;9.268;2022-12-08T07:48:27;18.00;;;11.90;;
2320;SDS011;15376;48.540;9.268;2022-12-08T07:50:58;17.33;;;11.87;;
2320;SDS011;15376;48.540;9.268;2022-12-08T07:53:25;13.43;;;11.27;;
2320;SDS011;15376;48.540;9.268;2022-12-08T07:55:50;15.03;;;10.83;;
2320;SDS011;15376;48.540;9.268;2022-12-08T07:58:15;19.20;;;12.33;;
2320;SDS011;15376;48.540;9.268;2022-12-08T08:00:41;15.07;;;10.87;;
2320;SDS011;15376;48.540;9.268;2022-12-08T08:03:07;14.30;;;10.77;;
2320;SDS011;15376;48.540;9.268;2022-12-08T08:05:34;15.95;;;12.30;;
2320;SDS011;15376;48.540;9.268;2022-12-08T08:07:59;16.50;;;10.60;;
2320;SDS011;15376;48.540;9.268;2022-12-08T08:10:25;16.40;;;10.90;;
2320;SDS011;15376;48.540;9.268;2022-12-08T08:12:50;13.40;;;10.57;;
2320;SDS011;15376;48.540;9.268;2022-12-08T08:15:16;15.93;;;10.67;;
2320;SDS011;15376;48.540;9.268;2022-12-08T08:17:43;14.85;;;11.10;;
2320;SDS011;15376;48.540;9.268;2022-12-08T08:20:08;27.33;;;11.40;;
2320;SDS011;15376;48.540;9.268;2022-12-08T08:22:35;13.23;;;10.07;;
2320;SDS011;15376;48.540;9.268;2022-12-08T08:25:01;19.47;;;11.00;;
2320;SDS011;15376;48.540;9.268;2022-12-08T08:27:26;16.80;;;11.20;;
2320;SDS011;15376;48.540;9.268;2022-12-08T08:29:52;15.70;;;11.20;;
2320;SDS011;15376;48.540;9.268;2022-12-08T08:32:18;13.40;;;10.93;;
2320;SDS011;15376;48.540;9.268;2022-12-08T08:34:43;13.30;;;9.63;;
2320;SDS011;15376;48.540;9.268;2022-12-08T08:37:08;12.33;;;10.57;;
2320;SDS011;15376;48.540;9.268;2022-12-08T08:39:34;14.10;;;11.07;;
2320;SDS011;15376;48.540;9.268;2022-12-08T08:41:59;16.57;;;11.83;;
2320;SDS011;15376;48.540;9.268;2022-12-08T08:44:24;12.13;;;10.23;;
2320;SDS011;15376;48.540;9.268;2022-12-08T08:46:50;12.50;;;9.87;;
2320;SDS011;15376;48.540;9.268;2022-12-08T08:49:15;19.73;;;11.33;;
2320;SDS011;15376;48.540;9.268;2022-12-08T08:51:41;16.00;;;9.93;;
2320;SDS011;15376;48.540;9.268;2022-12-08T08:54:06;21.00;;;11.67;;
2320;SDS011;15376;48.540;9.268;2022-12-08T08:56:31;11.03;;;9.80;;
2320;SDS011;15376;48.540;9.268;2022-12-08T08:58:57;17.63;;;10.53;;
2320;SDS011;15376;48.540;9.268;2022-12-08T09:01:23;17.37;;;11.10;;
2320;SDS011;15376;48.540;9.268;2022-12-08T09:03:50;14.63;;;10.93;;
2320;SDS011;15376;48.540;9.268;2022-12-08T09:06:17;12.83;;;10.07;;
2320;SDS011;15376;48.540;9.268;2022-12-08T09:08:43;12.63;;;9.13;;
2320;SDS011;15376;48.540;9.268;2022-12-08T09:11:09;15.90;;;9.70;;
2320;SDS011;15376;48.540;9.268;2022-12-08T09:13:35;11.17;;;7.57;;
2320;SDS011;15376;48.540;9.268;2022-12-08T09:16:01;11.97;;;7.80;;
2320;SDS011;15376;48.540;9.268;2022-12-08T09:18:28;13.30;;;7.80;;
2320;SDS011;15376;48.540;9.268;2022-12-08T09:20:54;15.43;;;8.23;;
2320;SDS011;15376;48.540;9.268;2022-12-08T09:23:19;15.63;;;9.40;;
2320;SDS011;15376;48.540;9.268;2022-12-08T09:25:45;8.87;;;8.07;;
2320;SDS011;15376;48.540;9.268;2022-12-08T09:28:10;8.77;;;7.87;;
2320;SDS011;15376;48.540;9.268;2022-12-08T09:30:36;11.17;;;7.90;;
2320;SDS011;15376;48.540;9.268;2022-12-08T09:33:02;9.40;;;8.50;;
2320;SDS011;15376;48.540;9.268;2022-12-08T09:35:27;9.10;;;7.83;;
2320;SDS011;15376;48.540;9.268;2022-12-08T09:37:53;9.87;;;8.07;;
2320;SDS011;15376;48.540;9.268;2022-12-08T09:40:19;11.60;;;7.50;;
2320;SDS011;15376;48.540;9.268;2022-12-08T09:42:49;8.87;;;7.97;;
2320;SDS011;15376;48.540;9.268;2022-12-08T09:45:18;8.43;;;7.63;;
2320;SDS011;15376;48.540;9.268;2022-12-08T09:47:57;7.40;;;6.70;;
2320;SDS011;15376;48.540;9.268;2022-12-08T09:53:05;5.77;;;5.07;;
2320;SDS011;15376;48.540;9.268;2022-12-08T09:55:49;4.97;;;4.57;;
2320;SDS011;15376;48.540;9.268;2022-12-08T09:58:38;4.23;;;3.67;;
2320;SDS011;15376;48.540;9.268;2022-12-08T10:01:11;7.37;;;4.77;;
2320;SDS011;15376;48.540;9.268;2022-12-08T10:03:37;4.63;;;3.90;;
2320;SDS011;15376;48.540;9.268;2022-12-08T10:11:14;5.30;;;4.80;;
2320;SDS011;15376;48.540;9.268;2022-12-08T10:13:49;6.47;;;4.57;;
2320;SDS011;15376;48.540;9.268;2022-12-08T10:18:49;4.50;;;3.80;;
2320;SDS011;15376;48.540;9.268;2022-12-08T10:21:35;5.30;;;4.80;;
2320;SDS011;15376;48.540;9.268;2022-12-08T10:24:04;6.13;;;4.50;;
2320;SDS011;15376;48.540;9.268;2022-12-08T10:26:37;7.60;;;4.70;;
2320;SDS011;15376;48.540;9.268;2022-12-08T10:29:03;8.03;;;5.73;;
2320;SDS011;15376;48.540;9.268;2022-12-08T10:31:30;5.73;;;5.20;;
2320;SDS011;15376;48.540;9.268;2022-12-08T10:33:57;7.30;;;6.17;;
2320;SDS011;15376;48.540;9.268;2022-12-08T10:39:32;8.13;;;5.83;;
2320;SDS011;15376;48.540;9.268;2022-12-08T10:47:20;8.77;;;5.13;;
2320;SDS011;15376;48.540;9.268;2022-12-08T10:49:47;6.90;;;5.07;;
2320;SDS011;15376;48.540;9.268;2022-12-08T10:52:54;7.20;;;5.37;;
2320;SDS011;15376;48.540;9.268;2022-12-08T10:55:24;6.87;;;5.37;;
2320;SDS011;15376;48.540;9.268;2022-12-08T10:57:50;5.37;;;4.80;;
2320;SDS011;15376;48.540;9.268;2022-12-08T11:00:16;7.03;;;4.97;;
2320;SDS011;15376;48.540;9.268;2022-12-08T11:02:55;6.60;;;5.90;;
2320;SDS011;15376;48.540;9.268;2022-12-08T11:05:25;5.30;;;4.80;;
2320;SDS011;15376;48.540;9.268;2022-12-08T11:07:53;5.23;;;4.70;;
2320;SDS011;15376;48.540;9.268;2022-12-08T11:10:24;4.93;;;4.43;;
2320;SDS011;15376;48.540;9.268;2022-12-08T11:12:54;7.93;;;5.80;;
2320;SDS011;15376;48.540;9.268;2022-12-08T11:15:24;7.77;;;6.50;;
2320;SDS011;15376;48.540;9.268;2022-12-08T11:18:00;5.80;;;5.23;;
2320;SDS011;15376;48.540;9.268;2022-12-08T11:20:36;5.70;;;4.50;;
2320;SDS011;15376;48.540;9.268;2022-12-08T11:23:03;5.90;;;4.23;;
2320;SDS011;15376;48.540;9.268;2022-12-08T11:25:29;4.47;;;4.07;;
2320;SDS011;15376;48.540;9.268;2022-12-08T11:27:58;5.60;;;4.40;;
2320;SDS011;15376;48.540;9.268;2022-12-08T11:30:27;5.87;;;4.27;;
2320;SDS011;15376;48.540;9.268;2022-12-08T11:33:00;5.90;;;3.60;;
2320;SDS011;15376;48.540;9.268;2022-12-08T11:35:36;10.70;;;3.60;;
2320;SDS011;15376;48.540;9.268;2022-12-08T11:38:05;4.00;;;3.60;;
2320;SDS011;15376;48.540;9.268;2022-12-08T11:40:37;3.70;;;3.30;;
2320;SDS011;15376;48.540;9.268;2022-12-08T11:45:31;4.43;;;3.40;;
2320;SDS011;15376;48.540;9.268;2022-12-08T11:48:16;4.63;;;4.23;;
2320;SDS011;15376;48.540;9.268;2022-12-08T11:50:48;5.30;;;3.67;;
2320;SDS011;15376;48.540;9.268;2022-12-08T11:53:23;3.90;;;3.50;;
2320;SDS011;15376;48.540;9.268;2022-12-08T11:55:56;4.53;;;3.47;;
2320;SDS011;15376;48.540;9.268;2022-12-08T11:58:33;7.23;;;4.13;;
2320;SDS011;15376;48.540;9.268;2022-12-08T12:01:04;3.50;;;3.20;;
2320;SDS011;15376;48.540;9.268;2022-12-08T12:03:38;3.77;;;3.30;;
2320;SDS011;15376;48.540;9.268;2022-12-08T12:06:16;3.50;;;3.20;;
2320;SDS011;15376;48.540;9.268;2022-12-08T12:14:57;8.73;;;3.87;;
2320;SDS011;15376;48.540;9.268;2022-12-08T12:20:26;4.80;;;4.40;;
2320;SDS011;15376;48.540;9.268;2022-12-08T12:22:59;3.80;;;3.50;;
2320;SDS011;15376;48.540;9.268;2022-12-08T12:25:26;5.93;;;3.67;;
2320;SDS011;15376;48.540;9.268;2022-12-08T12:27:54;3.80;;;3.33;;
2320;SDS011;15376;48.540;9.268;2022-12-08T12:30:25;5.80;;;3.80;;
2320;SDS011;15376;48.540;9.268;2022-12-08T12:32:53;3.90;;;3.50;;
2320;SDS011;15376;48.540;9.268;2022-12-08T12:38:04;4.80;;;4.10;;
2320;SDS011;15376;48.540;9.268;2022-12-08T12:41:01;5.57;;;4.17;;
2320;SDS011;15376;48.540;9.268;2022-12-08T12:43:30;7.70;;;4.07;;
2320;SDS011;15376;48.540;9.268;2022-12-08T12:48:48;5.87;;;4.27;;
2320;SDS011;15376;48.540;9.268;2022-12-08T12:54:25;4.60;;;4.03;;
2320;SDS011;15376;48.540;9.268;2022-12-08T12:56:55;4.20;;;3.80;;
2320;SDS011;15376;48.540;9.268;2022-12-08T12:59:43;5.40;;;4.03;;
2320;SDS011;15376;48.540;9.268;2022-12-08T13:10:28;4.80;;;4.30;;
2320;SDS011;15376;48.540;9.268;2022-12-08T13:13:03;5.10;;;4.13;;
2320;SDS011;15376;48.540;9.268;2022-12-08T13:15:54;5.73;;;4.20;;
2320;SDS011;15376;48.540;9.268;2022-12-08T13:21:10;4.63;;;4.23;;
2320;SDS011;15376;48.540;9.268;2022-12-08T13:23:50;6.83;;;4.57;;
2320;SDS011;15376;48.540;9.268;2022-12-08T13:29:28;5.63;;;4.80;;
2320;SDS011;15376;48.540;9.268;2022-12-08T13:32:00;4.20;;;3.90;;
2320;SDS011;15376;48.540;9.268;2022-12-08T13:42:30;4.63;;;4.13;;
2320;SDS011;15376;48.540;9.268;2022-12-08T13:47:36;5.40;;;4.30;;
2320;SDS011;15376;48.540;9.268;2022-12-08T13:50:20;6.27;;;4.43;;
2320;SDS011;15376;48.540;9.268;2022-12-08T13:52:53;5.07;;;4.30;;
2320;SDS011;15376;48.540;9.268;2022-12-08T13:55:39;5.33;;;4.20;;
2320;SDS011;15376;48.540;9.268;2022-12-08T13:58:25;4.80;;;4.30;;
2320;SDS011;15376;48.540;9.268;2022-12-08T14:01:29;4.37;;;4.00;;
2320;SDS011;15376;48.540;9.268;2022-12-08T14:06:19;6.17;;;4.20;;
2320;SDS011;15376;48.540;9.268;2022-12-08T14:08:59;5.00;;;3.90;;
2320;SDS011;15376;48.540;9.268;2022-12-08T14:11:28;5.63;;;4.40;;
2320;SDS011;15376;48.540;9.268;2022-12-08T14:14:03;3.53;;;3.23;;
2320;SDS011;15376;48.540;9.268;2022-12-08T14:16:32;5.83;;;3.87;;
2320;SDS011;15376;48.540;9.268;2022-12-08T14:19:18;4.83;;;4.23;;
2320;SDS011;15376;48.540;9.268;2022-12-08T14:22:31;3.93;;;3.60;;
2320;SDS011;15376;48.540;9.268;2022-12-08T14:24:39;4.33;;;3.47;;
2320;SDS011;15376;48.540;9.268;2022-12-08T14:27:10;5.93;;;3.73;;
2320;SDS011;15376;48.540;9.268;2022-12-08T14:32:18;3.90;;;3.20;;
2320;SDS011;15376;48.540;9.268;2022-12-08T14:34:50;3.97;;;3.67;;
2320;SDS011;15376;48.540;9.268;2022-12-08T14:37:17;3.80;;;3.47;;
2320;SDS011;15376;48.540;9.268;2022-12-08T14:39:43;4.40;;;3.97;;
2320;SDS011;15376;48.540;9.268;2022-12-08T14:42:25;4.97;;;4.07;;
2320;SDS011;15376;48.540;9.268;2022-12-08T14:44:58;5.20;;;4.80;;
2320;SDS011;15376;48.540;9.268;2022-12-08T14:47:28;4.23;;;3.30;;
2320;SDS011;15376;48.540;9.268;2022-12-08T14:49:55;5.20;;;3.30;;
2320;SDS011;15376;48.540;9.268;2022-12-08T14:52:21;4.67;;;4.17;;
2320;SDS011;15376;48.540;9.268;2022-12-08T14:54:47;4.33;;;3.67;;
2320;SDS011;15376;48.540;9.268;2022-12-08T14:57:14;7.63;;;3.43;;
2320;SDS011;15376;48.540;9.268;2022-12-08T14:59:40;4.03;;;3.50;;
2320;SDS011;15376;48.540;9.268;2022-12-08T15:02:26;3.87;;;3.47;;
2320;SDS011;15376;48.540;9.268;2022-12-08T15:07:43;6.00;;;4.00;;
2320;SDS011;15376;48.540;9.268;2022-12-08T15:15:24;3.73;;;3.30;;
2320;SDS011;15376;48.540;9.268;2022-12-08T15:17:56;4.50;;;3.63;;
2320;SDS011;15376;48.540;9.268;2022-12-08T15:20:49;5.20;;;4.37;;
2320;SDS011;15376;48.540;9.268;2022-12-08T15:23:27;5.10;;;3.80;;
2320;SDS011;15376;48.540;9.268;2022-12-08T15:25:59;5.30;;;4.90;;
2320;SDS011;15376;48.540;9.268;2022-12-08T15:28:26;5.73;;;4.60;;
2320;SDS011;15376;48.540;9.268;2022-12-08T15:30:53;4.90;;;4.47;;
2320;SDS011;15376;48.540;9.268;2022-12-08T15:33:19;8.00;;;4.90;;
2320;SDS011;15376;48.540;9.268;2022-12-08T15:35:45;7.30;;;4.20;;
2320;SDS011;15376;48.540;9.268;2022-12-08T15:38:22;4.23;;;3.83;;
2320;SDS011;15376;48.540;9.268;2022-12-08T15:40:49;4.10;;;3.70;;
2320;SDS011;15376;48.540;9.268;2022-12-08T15:43:15;5.40;;;4.50;;
2320;SDS011;15376;48.540;9.268;2022-12-08T15:45:40;3.53;;;3.23;;
2320;SDS011;15376;48.540;9.268;2022-12-08T15:48:06;7.20;;;4.30;;
2320;SDS011;15376;48.540;9.268;2022-12-08T15:50:31;6.37;;;4.07;;
2320;SDS011;15376;48.540;9.268;2022-12-08T15:52:56;3.73;;;3.30;;
2320;SDS011;15376;48.540;9.268;2022-12-08T15:55:22;3.97;;;3.50;;
2320;SDS011;15376;48.540;9.268;2022-12-08T15:57:48;4.53;;;3.10;;
2320;SDS011;15376;48.540;9.268;2022-12-08T16:02:54;3.27;;;2.97;;
2320;SDS011;15376;48.540;9.268;2022-12-08T16:05:22;4.43;;;4.03;;
2320;SDS011;15376;48.540;9.268;2022-12-08T16:07:48;4.63;;;3.93;;
2320;SDS011;15376;48.540;9.268;2022-12-08T16:10:14;9.60;;;4.10;;
2320;SDS011;15376;48.540;9.268;2022-12-08T16:12:44;3.80;;;3.50;;
2320;SDS011;15376;48.540;9.268;2022-12-08T16:15:29;3.97;;;3.60;;
2320;SDS011;15376;48.540;9.268;2022-12-08T16:17:55;5.70;;;3.37;;
2320;SDS011;15376;48.540;9.268;2022-12-08T16:20:24;4.87;;;4.07;;
2320;SDS011;15376;48.540;9.268;2022-12-08T16:22:49;5.17;;;3.43;;
2320;SDS011;15376;48.540;9.268;2022-12-08T16:25:15;5.30;;;4.50;;
2320;SDS011;15376;48.540;9.268;2022-12-08T16:27:41;4.00;;;3.47;;
2320;SDS011;15376;48.540;9.268;2022-12-08T16:30:07;4.17;;;3.57;;
2320;SDS011;15376;48.540;9.268;2022-12-08T16:32:37;4.30;;;3.37;;
2320;SDS011;15376;48.540;9.268;2022-12-08T16:35:03;5.87;;;5.07;;
2320;SDS011;15376;48.540;9.268;2022-12-08T16:37:28;6.70;;;5.73;;
2320;SDS011;15376;48.540;9.268;2022-12-08T16:39:54;6.73;;;5.07;;
2320;SDS011;15376;48.540;9.268;2022-12-08T16:42:22;5.20;;;4.67;;
2320;SDS011;15376;48.540;9.268;2022-12-08T16:45:22;6.87;;;5.47;;
2320;SDS011;15376;48.540;9.268;2022-12-08T16:47:53;7.97;;;4.30;;
2320;SDS011;15376;48.540;9.268;2022-12-08T16:50:24;5.60;;;4.40;;
2320;SDS011;15376;48.540;9.268;2022-12-08T16:55:30;3.93;;;3.53;;
2320;SDS011;15376;48.540;9.268;2022-12-08T16:57:56;3.90;;;3.30;;